sensor_id;sensor_type;location;lat;lon;timestamp;P1;durP1;ratioP1;P2;durP2;ratioP2
43817;SDS011;29868;47.360;18.984;2022-10-19T00:00:29;46.58;;;27.38;;
43817;SDS011;29868;47.360;18.984;2022-10-19T00:02:54;51.72;;;29.10;;
43817;SDS011;29868;47.360;18.984;2022-10-19T00:05:20;56.40;;;34.03;;
43817;SDS011;29868;47.360;18.984;2022-10-19T00:07:45;53.20;;;28.05;;
43817;SDS011;29868;47.360;18.984;2022-10-19T00:10:10;55.35;;;29.95;;
43817;SDS011;29868;47.360;18.984;2022-10-19T00:12:36;50.25;;;29.08;;
43817;SDS011;29868;47.360;18.984;2022-10-19T00:15:03;50.40;;;28.58;;
43817;SDS011;29868;47.360;18.984;2022-10-19T00:17:29;52.80;;;28.63;;
43817;SDS011;29868;47.360;18.984;2022-10-19T00:19:55;48.78;;;28.20;;
43817;SDS011;29868;47.360;18.984;2022-10-19T00:22:20;48.92;;;27.73;;
43817;SDS011;29868;47.360;18.984;2022-10-19T00:24:46;49.40;;;28.08;;
43817;SDS011;29868;47.360;18.984;2022-10-19T00:27:11;48.63;;;28.73;;
43817;SDS011;29868;47.360;18.984;2022-10-19T00:29:37;51.67;;;27.70;;
43817;SDS011;29868;47.360;18.984;2022-10-19T00:32:02;51.47;;;27.23;;
43817;SDS011;29868;47.360;18.984;2022-10-19T00:34:28;48.13;;;27.38;;
43817;SDS011;29868;47.360;18.984;2022-10-19T00:36:53;49.47;;;28.52;;
43817;SDS011;29868;47.360;18.984;2022-10-19T00:39:18;62.22;;;33.15;;
43817;SDS011;29868;47.360;18.984;2022-10-19T00:41:45;61.25;;;34.55;;
43817;SDS011;29868;47.360;18.984;2022-10-19T00:46:40;50.72;;;27.58;;
43817;SDS011;29868;47.360;18.984;2022-10-19T00:49:10;47.90;;;28.05;;
43817;SDS011;29868;47.360;18.984;2022-10-19T00:51:38;49.22;;;26.75;;
43817;SDS011;29868;47.360;18.984;2022-10-19T00:54:06;50.20;;;28.20;;
43817;SDS011;29868;47.360;18.984;2022-10-19T00:56:33;45.95;;;27.73;;
43817;SDS011;29868;47.360;18.984;2022-10-19T00:59:01;45.88;;;27.77;;
43817;SDS011;29868;47.360;18.984;2022-10-19T01:01:28;47.85;;;27.50;;
43817;SDS011;29868;47.360;18.984;2022-10-19T01:03:54;57.05;;;33.78;;
43817;SDS011;29868;47.360;18.984;2022-10-19T01:06:20;65.78;;;41.00;;
43817;SDS011;29868;47.360;18.984;2022-10-19T01:08:48;47.15;;;27.92;;
43817;SDS011;29868;47.360;18.984;2022-10-19T01:11:25;44.95;;;25.65;;
43817;SDS011;29868;47.360;18.984;2022-10-19T01:19:35;48.38;;;27.10;;
43817;SDS011;29868;47.360;18.984;2022-10-19T01:30:41;43.85;;;24.17;;
43817;SDS011;29868;47.360;18.984;2022-10-19T01:33:26;42.83;;;24.55;;
43817;SDS011;29868;47.360;18.984;2022-10-19T01:36:02;40.75;;;23.48;;
43817;SDS011;29868;47.360;18.984;2022-10-19T01:41:20;43.65;;;24.58;;
43817;SDS011;29868;47.360;18.984;2022-10-19T01:44:00;40.72;;;23.88;;
43817;SDS011;29868;47.360;18.984;2022-10-19T01:46:29;38.47;;;22.88;;
43817;SDS011;29868;47.360;18.984;2022-10-19T01:49:17;41.42;;;23.45;;
43817;SDS011;29868;47.360;18.984;2022-10-19T01:51:48;43.47;;;23.83;;
43817;SDS011;29868;47.360;18.984;2022-10-19T01:54:17;40.47;;;22.90;;
43817;SDS011;29868;47.360;18.984;2022-10-19T01:56:45;41.33;;;24.17;;
43817;SDS011;29868;47.360;18.984;2022-10-19T01:59:13;38.42;;;23.02;;
43817;SDS011;29868;47.360;18.984;2022-10-19T02:01:42;40.03;;;22.55;;
43817;SDS011;29868;47.360;18.984;2022-10-19T02:04:11;40.33;;;22.23;;
43817;SDS011;29868;47.360;18.984;2022-10-19T08:23:39;10.63;;;7.00;;
43817;SDS011;29868;47.360;18.984;2022-10-19T08:26:05;11.05;;;7.03;;
43817;SDS011;29868;47.360;18.984;2022-10-19T08:28:30;13.63;;;7.97;;
43817;SDS011;29868;47.360;18.984;2022-10-19T08:30:56;9.77;;;7.00;;
43817;SDS011;29868;47.360;18.984;2022-10-19T08:33:23;10.77;;;6.70;;
43817;SDS011;29868;47.360;18.984;2022-10-19T08:35:50;11.63;;;6.43;;
43817;SDS011;29868;47.360;18.984;2022-10-19T08:38:15;9.85;;;6.10;;
43817;SDS011;29868;47.360;18.984;2022-10-19T08:40:40;9.73;;;6.00;;
43817;SDS011;29868;47.360;18.984;2022-10-19T08:43:13;11.43;;;6.60;;
43817;SDS011;29868;47.360;18.984;2022-10-19T08:46:00;10.52;;;5.25;;
43817;SDS011;29868;47.360;18.984;2022-10-19T08:48:44;7.00;;;4.55;;
43817;SDS011;29868;47.360;18.984;2022-10-19T08:51:11;7.07;;;4.32;;
43817;SDS011;29868;47.360;18.984;2022-10-19T08:53:53;6.00;;;4.20;;
43817;SDS011;29868;47.360;18.984;2022-10-19T08:56:34;6.03;;;4.10;;
43817;SDS011;29868;47.360;18.984;2022-10-19T08:59:07;6.35;;;3.97;;
43817;SDS011;29868;47.360;18.984;2022-10-19T09:07:35;6.18;;;4.30;;
43817;SDS011;29868;47.360;18.984;2022-10-19T09:09:53;6.72;;;4.25;;
43817;SDS011;29868;47.360;18.984;2022-10-19T09:17:22;5.63;;;3.75;;
43817;SDS011;29868;47.360;18.984;2022-10-19T09:19:49;6.15;;;3.95;;
43817;SDS011;29868;47.360;18.984;2022-10-19T09:22:31;5.15;;;3.85;;
43817;SDS011;29868;47.360;18.984;2022-10-19T09:24:59;6.15;;;4.25;;
43817;SDS011;29868;47.360;18.984;2022-10-19T09:27:36;8.27;;;4.43;;
43817;SDS011;29868;47.360;18.984;2022-10-19T09:30:04;6.78;;;4.07;;
43817;SDS011;29868;47.360;18.984;2022-10-19T09:32:38;6.47;;;3.88;;
43817;SDS011;29868;47.360;18.984;2022-10-19T09:35:04;8.23;;;4.38;;
43817;SDS011;29868;47.360;18.984;2022-10-19T09:37:47;6.88;;;3.95;;
43817;SDS011;29868;47.360;18.984;2022-10-19T09:40:21;7.70;;;4.18;;
43817;SDS011;29868;47.360;18.984;2022-10-19T09:42:51;5.85;;;4.13;;
43817;SDS011;29868;47.360;18.984;2022-10-19T09:50:59;6.22;;;4.20;;
43817;SDS011;29868;47.360;18.984;2022-10-19T09:53:26;5.13;;;3.55;;
43817;SDS011;29868;47.360;18.984;2022-10-19T09:56:02;6.90;;;3.80;;
43817;SDS011;29868;47.360;18.984;2022-10-19T09:58:30;8.32;;;4.05;;
43817;SDS011;29868;47.360;18.984;2022-10-19T10:00:56;6.30;;;3.90;;
43817;SDS011;29868;47.360;18.984;2022-10-19T10:03:29;7.90;;;3.97;;
43817;SDS011;29868;47.360;18.984;2022-10-19T10:06:03;6.25;;;3.70;;
43817;SDS011;29868;47.360;18.984;2022-10-19T10:08:35;5.82;;;4.00;;
43817;SDS011;29868;47.360;18.984;2022-10-19T10:11:13;7.75;;;4.18;;
43817;SDS011;29868;47.360;18.984;2022-10-19T10:13:47;6.05;;;4.47;;
43817;SDS011;29868;47.360;18.984;2022-10-19T10:16:15;5.75;;;3.75;;
43817;SDS011;29868;47.360;18.984;2022-10-19T10:18:58;5.18;;;3.58;;
43817;SDS011;29868;47.360;18.984;2022-10-19T10:24:51;4.97;;;3.50;;
43817;SDS011;29868;47.360;18.984;2022-10-19T10:27:28;6.93;;;3.80;;
43817;SDS011;29868;47.360;18.984;2022-10-19T10:30:03;5.28;;;3.60;;
43817;SDS011;29868;47.360;18.984;2022-10-19T10:32:37;6.38;;;2.90;;
43817;SDS011;29868;47.360;18.984;2022-10-19T10:35:33;4.80;;;2.80;;
43817;SDS011;29868;47.360;18.984;2022-10-19T10:41:05;2.95;;;1.98;;
43817;SDS011;29868;47.360;18.984;2022-10-19T10:43:47;3.38;;;2.05;;
43817;SDS011;29868;47.360;18.984;2022-10-19T10:46:23;3.85;;;2.13;;
43817;SDS011;29868;47.360;18.984;2022-10-19T10:48:58;2.85;;;1.60;;
43817;SDS011;29868;47.360;18.984;2022-10-19T10:51:39;2.35;;;1.70;;
43817;SDS011;29868;47.360;18.984;2022-10-19T10:54:20;3.45;;;1.65;;
43817;SDS011;29868;47.360;18.984;2022-10-19T11:07:40;3.05;;;1.70;;
43817;SDS011;29868;47.360;18.984;2022-10-19T11:16:14;2.65;;;1.45;;
43817;SDS011;29868;47.360;18.984;2022-10-19T11:27:04;1.20;;;1.00;;
43817;SDS011;29868;47.360;18.984;2022-10-19T11:29:46;2.28;;;1.00;;
43817;SDS011;29868;47.360;18.984;2022-10-19T11:49:47;2.28;;;1.50;;
43817;SDS011;29868;47.360;18.984;2022-10-19T12:06:34;3.40;;;1.63;;
43817;SDS011;29868;47.360;18.984;2022-10-19T12:15:11;1.50;;;1.10;;
43817;SDS011;29868;47.360;18.984;2022-10-19T12:18:03;2.55;;;1.23;;
43817;SDS011;29868;47.360;18.984;2022-10-19T12:20:50;2.78;;;1.33;;
43817;SDS011;29868;47.360;18.984;2022-10-19T12:23:24;1.40;;;1.10;;
43817;SDS011;29868;47.360;18.984;2022-10-19T12:25:57;2.00;;;1.02;;
43817;SDS011;29868;47.360;18.984;2022-10-19T12:28:28;1.48;;;1.17;;
43817;SDS011;29868;47.360;18.984;2022-10-19T12:30:56;1.42;;;1.20;;
43817;SDS011;29868;47.360;18.984;2022-10-19T12:41:17;2.05;;;1.20;;
43817;SDS011;29868;47.360;18.984;2022-10-19T12:46:42;2.42;;;1.25;;
43817;SDS011;29868;47.360;18.984;2022-10-19T12:49:53;3.28;;;1.40;;
43817;SDS011;29868;47.360;18.984;2022-10-19T12:52:00;1.85;;;1.30;;
43817;SDS011;29868;47.360;18.984;2022-10-19T12:54:27;2.20;;;1.30;;
43817;SDS011;29868;47.360;18.984;2022-10-19T12:56:54;2.13;;;1.45;;
43817;SDS011;29868;47.360;18.984;2022-10-19T12:59:22;2.92;;;1.40;;
43817;SDS011;29868;47.360;18.984;2022-10-19T13:01:53;3.13;;;1.40;;
43817;SDS011;29868;47.360;18.984;2022-10-19T13:04:21;1.65;;;1.30;;
43817;SDS011;29868;47.360;18.984;2022-10-19T13:06:49;2.88;;;1.52;;
43817;SDS011;29868;47.360;18.984;2022-10-19T13:17:58;3.47;;;1.45;;
43817;SDS011;29868;47.360;18.984;2022-10-19T13:25:26;1.88;;;1.17;;
43817;SDS011;29868;47.360;18.984;2022-10-19T13:27:59;2.45;;;1.58;;
43817;SDS011;29868;47.360;18.984;2022-10-19T13:38:27;2.97;;;2.20;;
43817;SDS011;29868;47.360;18.984;2022-10-19T13:43:32;2.53;;;1.50;;
43817;SDS011;29868;47.360;18.984;2022-10-19T13:59:31;2.40;;;1.60;;
43817;SDS011;29868;47.360;18.984;2022-10-19T14:07:45;2.72;;;1.80;;
43817;SDS011;29868;47.360;18.984;2022-10-19T14:10:34;3.80;;;2.30;;
43817;SDS011;29868;47.360;18.984;2022-10-19T14:13:01;4.65;;;2.50;;
43817;SDS011;29868;47.360;18.984;2022-10-19T14:15:30;4.28;;;2.35;;
43817;SDS011;29868;47.360;18.984;2022-10-19T14:17:57;5.43;;;2.80;;
43817;SDS011;29868;47.360;18.984;2022-10-19T14:20:30;5.47;;;2.67;;
43817;SDS011;29868;47.360;18.984;2022-10-19T14:22:57;6.07;;;2.65;;
43817;SDS011;29868;47.360;18.984;2022-10-19T14:25:42;4.30;;;2.65;;
43817;SDS011;29868;47.360;18.984;2022-10-19T14:28:14;4.15;;;2.35;;
43817;SDS011;29868;47.360;18.984;2022-10-19T14:30:41;4.07;;;2.40;;
43817;SDS011;29868;47.360;18.984;2022-10-19T14:33:10;3.78;;;2.17;;
43817;SDS011;29868;47.360;18.984;2022-10-19T14:35:41;4.40;;;2.58;;
43817;SDS011;29868;47.360;18.984;2022-10-19T14:38:17;7.05;;;2.22;;
43817;SDS011;29868;47.360;18.984;2022-10-19T14:40:45;3.53;;;2.47;;
43817;SDS011;29868;47.360;18.984;2022-10-19T14:43:21;4.35;;;2.35;;
43817;SDS011;29868;47.360;18.984;2022-10-19T14:48:36;3.60;;;2.20;;
43817;SDS011;29868;47.360;18.984;2022-10-19T14:51:12;5.30;;;2.80;;
43817;SDS011;29868;47.360;18.984;2022-10-19T14:53:44;4.20;;;2.58;;
43817;SDS011;29868;47.360;18.984;2022-10-19T14:58:55;8.52;;;5.28;;
43817;SDS011;29868;47.360;18.984;2022-10-19T15:01:24;5.55;;;3.17;;
43817;SDS011;29868;47.360;18.984;2022-10-19T15:03:49;5.43;;;3.17;;
43817;SDS011;29868;47.360;18.984;2022-10-19T15:06:20;8.02;;;4.70;;
43817;SDS011;29868;47.360;18.984;2022-10-19T15:08:50;8.77;;;4.40;;
43817;SDS011;29868;47.360;18.984;2022-10-19T15:11:37;10.13;;;5.93;;
43817;SDS011;29868;47.360;18.984;2022-10-19T15:14:05;6.85;;;4.15;;
43817;SDS011;29868;47.360;18.984;2022-10-19T15:19:27;7.97;;;3.92;;
43817;SDS011;29868;47.360;18.984;2022-10-19T15:22:07;11.70;;;4.47;;
43817;SDS011;29868;47.360;18.984;2022-10-19T15:24:36;5.72;;;3.50;;
43817;SDS011;29868;47.360;18.984;2022-10-19T15:27:09;7.80;;;4.25;;
43817;SDS011;29868;47.360;18.984;2022-10-19T15:29:52;6.35;;;3.72;;
43817;SDS011;29868;47.360;18.984;2022-10-19T15:32:30;6.43;;;3.22;;
43817;SDS011;29868;47.360;18.984;2022-10-19T15:34:59;6.82;;;3.63;;
43817;SDS011;29868;47.360;18.984;2022-10-19T15:37:36;9.65;;;5.05;;
43817;SDS011;29868;47.360;18.984;2022-10-19T15:40:08;8.63;;;4.68;;
43817;SDS011;29868;47.360;18.984;2022-10-19T15:42:43;7.40;;;4.72;;
43817;SDS011;29868;47.360;18.984;2022-10-19T15:45:57;5.15;;;3.15;;
43817;SDS011;29868;47.360;18.984;2022-10-19T15:50:49;8.93;;;5.28;;
43817;SDS011;29868;47.360;18.984;2022-10-19T15:53:16;31.95;;;15.23;;
43817;SDS011;29868;47.360;18.984;2022-10-19T15:55:42;45.25;;;20.95;;
43817;SDS011;29868;47.360;18.984;2022-10-19T15:58:09;18.35;;;9.48;;
43817;SDS011;29868;47.360;18.984;2022-10-19T16:00:36;14.10;;;9.00;;
43817;SDS011;29868;47.360;18.984;2022-10-19T16:03:02;9.82;;;6.22;;
43817;SDS011;29868;47.360;18.984;2022-10-19T16:05:28;13.15;;;7.38;;
43817;SDS011;29868;47.360;18.984;2022-10-19T16:07:54;16.15;;;8.35;;
43817;SDS011;29868;47.360;18.984;2022-10-19T16:10:20;12.43;;;5.15;;
43817;SDS011;29868;47.360;18.984;2022-10-19T16:12:47;6.68;;;4.97;;
43817;SDS011;29868;47.360;18.984;2022-10-19T16:15:14;9.40;;;5.45;;
43817;SDS011;29868;47.360;18.984;2022-10-19T16:17:46;25.00;;;13.60;;
43817;SDS011;29868;47.360;18.984;2022-10-19T16:20:13;6.88;;;3.55;;
43817;SDS011;29868;47.360;18.984;2022-10-19T16:22:39;13.23;;;6.88;;
43817;SDS011;29868;47.360;18.984;2022-10-19T16:25:05;16.17;;;8.80;;
43817;SDS011;29868;47.360;18.984;2022-10-19T16:27:30;13.85;;;7.43;;
43817;SDS011;29868;47.360;18.984;2022-10-19T16:29:56;13.93;;;8.32;;
43817;SDS011;29868;47.360;18.984;2022-10-19T16:32:21;9.68;;;6.13;;
43817;SDS011;29868;47.360;18.984;2022-10-19T16:34:46;8.02;;;5.30;;
43817;SDS011;29868;47.360;18.984;2022-10-19T16:37:12;7.40;;;4.38;;
43817;SDS011;29868;47.360;18.984;2022-10-19T16:39:37;6.47;;;3.60;;
43817;SDS011;29868;47.360;18.984;2022-10-19T16:42:02;8.32;;;5.00;;
43817;SDS011;29868;47.360;18.984;2022-10-19T16:44:28;7.35;;;3.83;;
43817;SDS011;29868;47.360;18.984;2022-10-19T16:46:57;7.15;;;4.40;;
43817;SDS011;29868;47.360;18.984;2022-10-19T16:49:22;13.90;;;6.20;;
43817;SDS011;29868;47.360;18.984;2022-10-19T16:51:48;12.50;;;7.50;;
43817;SDS011;29868;47.360;18.984;2022-10-19T16:54:14;19.38;;;10.68;;
43817;SDS011;29868;47.360;18.984;2022-10-19T16:56:43;19.88;;;10.60;;
43817;SDS011;29868;47.360;18.984;2022-10-19T16:59:11;26.98;;;13.85;;
43817;SDS011;29868;47.360;18.984;2022-10-19T17:01:38;21.88;;;11.95;;
43817;SDS011;29868;47.360;18.984;2022-10-19T17:04:04;19.10;;;10.77;;
43817;SDS011;29868;47.360;18.984;2022-10-19T17:06:29;35.83;;;21.45;;
43817;SDS011;29868;47.360;18.984;2022-10-19T17:08:55;23.38;;;11.85;;
43817;SDS011;29868;47.360;18.984;2022-10-19T17:11:29;8.43;;;4.60;;
43817;SDS011;29868;47.360;18.984;2022-10-19T17:13:57;7.15;;;4.30;;
43817;SDS011;29868;47.360;18.984;2022-10-19T17:16:25;6.05;;;3.40;;
43817;SDS011;29868;47.360;18.984;2022-10-19T17:18:53;5.70;;;3.90;;
43817;SDS011;29868;47.360;18.984;2022-10-19T17:21:21;8.15;;;4.25;;
43817;SDS011;29868;47.360;18.984;2022-10-19T17:23:51;8.05;;;3.85;;
43817;SDS011;29868;47.360;18.984;2022-10-19T17:26:17;7.82;;;4.13;;
43817;SDS011;29868;47.360;18.984;2022-10-19T17:28:43;6.85;;;3.28;;
43817;SDS011;29868;47.360;18.984;2022-10-19T17:31:10;7.68;;;4.00;;
43817;SDS011;29868;47.360;18.984;2022-10-19T17:33:38;6.97;;;4.40;;
43817;SDS011;29868;47.360;18.984;2022-10-19T17:38:31;9.27;;;3.42;;
43817;SDS011;29868;47.360;18.984;2022-10-19T17:41:04;8.75;;;3.60;;
43817;SDS011;29868;47.360;18.984;2022-10-19T17:43:35;5.85;;;3.67;;
43817;SDS011;29868;47.360;18.984;2022-10-19T17:46:04;6.28;;;3.55;;
43817;SDS011;29868;47.360;18.984;2022-10-19T17:48:31;8.98;;;4.28;;
43817;SDS011;29868;47.360;18.984;2022-10-19T17:51:01;10.68;;;4.85;;
43817;SDS011;29868;47.360;18.984;2022-10-19T17:53:29;11.40;;;5.03;;
43817;SDS011;29868;47.360;18.984;2022-10-19T17:55:57;15.52;;;5.60;;
43817;SDS011;29868;47.360;18.984;2022-10-19T17:58:24;9.52;;;5.47;;
43817;SDS011;29868;47.360;18.984;2022-10-19T18:00:55;9.02;;;4.70;;
43817;SDS011;29868;47.360;18.984;2022-10-19T18:03:25;11.25;;;5.82;;
43817;SDS011;29868;47.360;18.984;2022-10-19T18:06:15;10.43;;;5.10;;
43817;SDS011;29868;47.360;18.984;2022-10-19T18:08:46;7.75;;;3.78;;
43817;SDS011;29868;47.360;18.984;2022-10-19T18:11:17;6.40;;;3.67;;
43817;SDS011;29868;47.360;18.984;2022-10-19T18:13:44;7.53;;;4.10;;
43817;SDS011;29868;47.360;18.984;2022-10-19T18:16:14;6.35;;;4.00;;
43817;SDS011;29868;47.360;18.984;2022-10-19T18:18:42;6.60;;;2.90;;
43817;SDS011;29868;47.360;18.984;2022-10-19T18:21:17;5.53;;;3.40;;
43817;SDS011;29868;47.360;18.984;2022-10-19T18:23:44;6.32;;;3.50;;
43817;SDS011;29868;47.360;18.984;2022-10-19T18:26:15;5.90;;;3.30;;
43817;SDS011;29868;47.360;18.984;2022-10-19T18:28:43;5.63;;;3.60;;
43817;SDS011;29868;47.360;18.984;2022-10-19T18:31:11;5.60;;;3.10;;
43817;SDS011;29868;47.360;18.984;2022-10-19T18:33:38;8.63;;;3.60;;
43817;SDS011;29868;47.360;18.984;2022-10-19T18:36:05;8.77;;;3.38;;
43817;SDS011;29868;47.360;18.984;2022-10-19T18:38:31;5.85;;;3.33;;
43817;SDS011;29868;47.360;18.984;2022-10-19T18:41:30;13.77;;;5.35;;
43817;SDS011;29868;47.360;18.984;2022-10-19T18:43:49;6.38;;;3.10;;
43817;SDS011;29868;47.360;18.984;2022-10-19T18:46:17;6.20;;;2.80;;
43817;SDS011;29868;47.360;18.984;2022-10-19T18:48:43;5.55;;;2.72;;
43817;SDS011;29868;47.360;18.984;2022-10-19T18:51:09;5.75;;;3.35;;
43817;SDS011;29868;47.360;18.984;2022-10-19T18:53:34;8.30;;;2.80;;
43817;SDS011;29868;47.360;18.984;2022-10-19T18:56:01;7.38;;;4.07;;
43817;SDS011;29868;47.360;18.984;2022-10-19T18:58:28;7.35;;;3.92;;
43817;SDS011;29868;47.360;18.984;2022-10-19T19:03:31;7.03;;;3.63;;
43817;SDS011;29868;47.360;18.984;2022-10-19T19:06:00;6.45;;;3.42;;
43817;SDS011;29868;47.360;18.984;2022-10-19T19:08:30;7.57;;;3.67;;
43817;SDS011;29868;47.360;18.984;2022-10-19T19:10:56;6.00;;;2.90;;
43817;SDS011;29868;47.360;18.984;2022-10-19T19:13:32;5.47;;;2.95;;
43817;SDS011;29868;47.360;18.984;2022-10-19T19:15:57;9.10;;;3.20;;
43817;SDS011;29868;47.360;18.984;2022-10-19T19:18:23;5.78;;;3.33;;
43817;SDS011;29868;47.360;18.984;2022-10-19T19:20:49;8.00;;;3.17;;
43817;SDS011;29868;47.360;18.984;2022-10-19T19:23:14;8.07;;;3.10;;
43817;SDS011;29868;47.360;18.984;2022-10-19T19:25:39;5.32;;;3.22;;
43817;SDS011;29868;47.360;18.984;2022-10-19T19:28:08;4.95;;;3.00;;
43817;SDS011;29868;47.360;18.984;2022-10-19T19:30:37;8.60;;;3.78;;
43817;SDS011;29868;47.360;18.984;2022-10-19T19:33:07;7.68;;;3.80;;
43817;SDS011;29868;47.360;18.984;2022-10-19T19:35:33;5.88;;;3.20;;
43817;SDS011;29868;47.360;18.984;2022-10-19T19:37:58;6.53;;;3.28;;
43817;SDS011;29868;47.360;18.984;2022-10-19T19:40:24;7.88;;;3.83;;
43817;SDS011;29868;47.360;18.984;2022-10-19T19:42:49;8.02;;;3.80;;
43817;SDS011;29868;47.360;18.984;2022-10-19T19:45:17;7.70;;;3.75;;
43817;SDS011;29868;47.360;18.984;2022-10-19T19:47:43;6.28;;;3.50;;
43817;SDS011;29868;47.360;18.984;2022-10-19T19:50:08;5.25;;;3.17;;
43817;SDS011;29868;47.360;18.984;2022-10-19T19:52:34;6.65;;;3.35;;
43817;SDS011;29868;47.360;18.984;2022-10-19T19:54:59;30.38;;;11.30;;
43817;SDS011;29868;47.360;18.984;2022-10-19T19:57:24;29.63;;;9.82;;
43817;SDS011;29868;47.360;18.984;2022-10-19T19:59:50;23.38;;;8.82;;
43817;SDS011;29868;47.360;18.984;2022-10-19T20:02:15;41.03;;;14.77;;
43817;SDS011;29868;47.360;18.984;2022-10-19T20:04:40;18.00;;;8.38;;
43817;SDS011;29868;47.360;18.984;2022-10-19T20:07:06;8.50;;;4.45;;
43817;SDS011;29868;47.360;18.984;2022-10-19T20:09:31;6.25;;;3.50;;
43817;SDS011;29868;47.360;18.984;2022-10-19T20:11:56;8.45;;;3.95;;
43817;SDS011;29868;47.360;18.984;2022-10-19T20:14:22;5.88;;;3.28;;
43817;SDS011;29868;47.360;18.984;2022-10-19T20:16:47;6.38;;;3.75;;
43817;SDS011;29868;47.360;18.984;2022-10-19T20:19:13;6.63;;;3.90;;
43817;SDS011;29868;47.360;18.984;2022-10-19T20:21:39;6.57;;;3.65;;
43817;SDS011;29868;47.360;18.984;2022-10-19T20:24:05;8.82;;;3.63;;
43817;SDS011;29868;47.360;18.984;2022-10-19T20:26:31;7.05;;;3.75;;
43817;SDS011;29868;47.360;18.984;2022-10-19T20:28:57;5.68;;;3.67;;
43817;SDS011;29868;47.360;18.984;2022-10-19T20:31:23;6.68;;;3.42;;
43817;SDS011;29868;47.360;18.984;2022-10-19T20:33:48;7.13;;;3.78;;
43817;SDS011;29868;47.360;18.984;2022-10-19T20:36:21;7.25;;;3.60;;
43817;SDS011;29868;47.360;18.984;2022-10-19T20:38:57;6.53;;;3.53;;
43817;SDS011;29868;47.360;18.984;2022-10-19T20:41:24;6.65;;;3.90;;
43817;SDS011;29868;47.360;18.984;2022-10-19T20:43:50;5.88;;;3.53;;
43817;SDS011;29868;47.360;18.984;2022-10-19T20:46:22;7.40;;;3.85;;
43817;SDS011;29868;47.360;18.984;2022-10-19T20:48:49;5.95;;;3.40;;
43817;SDS011;29868;47.360;18.984;2022-10-19T20:51:22;6.97;;;3.95;;
43817;SDS011;29868;47.360;18.984;2022-10-19T20:53:51;7.97;;;3.38;;
43817;SDS011;29868;47.360;18.984;2022-10-19T20:56:18;6.53;;;3.47;;
43817;SDS011;29868;47.360;18.984;2022-10-19T20:58:47;6.82;;;3.53;;
43817;SDS011;29868;47.360;18.984;2022-10-19T21:01:15;9.60;;;3.35;;
43817;SDS011;29868;47.360;18.984;2022-10-19T21:03:46;11.02;;;3.60;;
43817;SDS011;29868;47.360;18.984;2022-10-19T21:06:12;6.50;;;3.35;;
43817;SDS011;29868;47.360;18.984;2022-10-19T21:08:38;5.80;;;3.33;;
43817;SDS011;29868;47.360;18.984;2022-10-19T21:11:10;6.00;;;3.42;;
43817;SDS011;29868;47.360;18.984;2022-10-19T21:13:37;6.63;;;3.20;;
43817;SDS011;29868;47.360;18.984;2022-10-19T21:16:12;5.68;;;3.15;;
43817;SDS011;29868;47.360;18.984;2022-10-19T21:18:39;5.90;;;3.35;;
43817;SDS011;29868;47.360;18.984;2022-10-19T21:21:12;7.05;;;3.05;;
43817;SDS011;29868;47.360;18.984;2022-10-19T21:23:39;6.43;;;3.20;;
43817;SDS011;29868;47.360;18.984;2022-10-19T21:26:05;5.72;;;3.08;;
43817;SDS011;29868;47.360;18.984;2022-10-19T21:28:30;7.03;;;3.17;;
43817;SDS011;29868;47.360;18.984;2022-10-19T21:30:56;6.63;;;3.20;;
43817;SDS011;29868;47.360;18.984;2022-10-19T21:33:23;7.45;;;3.08;;
43817;SDS011;29868;47.360;18.984;2022-10-19T21:35:49;6.00;;;3.00;;
43817;SDS011;29868;47.360;18.984;2022-10-19T21:38:15;5.68;;;3.08;;
43817;SDS011;29868;47.360;18.984;2022-10-19T21:40:40;7.78;;;3.35;;
43817;SDS011;29868;47.360;18.984;2022-10-19T21:43:05;6.13;;;3.15;;
43817;SDS011;29868;47.360;18.984;2022-10-19T21:45:30;5.45;;;2.97;;
43817;SDS011;29868;47.360;18.984;2022-10-19T21:47:56;6.10;;;3.05;;
43817;SDS011;29868;47.360;18.984;2022-10-19T21:50:21;5.80;;;3.00;;
